Time;durP1;ratioP1;P1;durP2;ratioP2;P2;SDS_P1;SDS_P2;PMS_P1;PMS_P2;Temp;Humidity;BMP_temperature;BMP_pressure;BME280_temperature;BME280_humidity;BME280_pressure;Samples;Min_cycle;Max_cycle;Signal;HPM_P1;HPM_P2
2022/11/30 01:00:43;;;;;;;10.43;5.63;;;;;;;-0.31;93.33;101189.02;1646109;84;22474;-75
2022/11/30 01:03:09;;;;;;;8.35;6.53;;;;;;;-0.30;93.23;101189.37;1625085;86;21017;-72
2022/11/30 01:05:35;;;;;;;10.20;6.70;;;;;;;-0.21;93.14;101179.25;1597824;87;21214;-71
2022/11/30 01:08:04;;;;;;;7.92;5.90;;;;;;;-0.16;92.69;101181.81;1605184;88;21060;-68
2022/11/30 01:10:32;;;;;;;8.43;6.50;;;;;;;-0.10;92.33;101183.89;1612510;88;21560;-69
2022/11/30 01:12:59;;;;;;;7.60;5.55;;;;;;;-0.03;91.84;101178.84;1608033;86;21018;-68
2022/11/30 01:15:25;;;;;;;10.13;6.83;;;;;;;0.00;91.52;101174.59;1623883;87;21018;-68
2022/11/30 01:17:52;;;;;;;12.73;6.37;;;;;;;0.03;91.03;101173.45;1624477;87;22161;-67
2022/11/30 01:20:19;;;;;;;10.15;7.33;;;;;;;0.08;90.90;101179.98;1624638;88;20969;-70
2022/11/30 01:22:45;;;;;;;8.13;6.65;;;;;;;0.12;90.32;101180.03;1624054;87;20993;-70
2022/11/30 01:25:12;;;;;;;11.90;6.75;;;;;;;0.09;89.66;101182.14;1623503;87;21096;-69
2022/11/30 01:27:40;;;;;;;12.43;6.67;;;;;;;0.05;89.63;101178.94;1605494;87;21624;-67
2022/11/30 01:30:08;;;;;;;10.00;7.72;;;;;;;0.07;89.53;101180.95;1623902;87;21739;-68
2022/11/30 01:32:34;;;;;;;9.73;7.60;;;;;;;0.02;88.88;101179.23;1634520;86;21362;-69
2022/11/30 01:35:01;;;;;;;15.28;7.80;;;;;;;0.02;88.88;101176.59;1624626;88;21033;-69
2022/11/30 01:37:33;;;;;;;7.97;6.58;;;;;;;0.07;89.11;101180.95;1623815;87;21009;-68
2022/11/30 01:39:57;;;;;;;7.78;6.55;;;;;;;0.08;88.62;101174.69;1622599;87;22235;-70
2022/11/30 01:42:23;;;;;;;7.70;6.90;;;;;;;0.11;88.13;101169.59;1622509;87;21256;-70
2022/11/30 01:44:57;;;;;;;7.33;6.45;;;;;;;0.08;87.60;101173.38;1624197;87;21014;-67
2022/11/30 01:47:41;;;;;;;9.53;7.33;;;;;;;0.05;87.78;101164.38;1618415;87;21037;-70
2022/11/30 01:50:25;;;;;;;13.28;8.40;;;;;;;0.07;87.83;101163.77;1593939;89;21123;-71
2022/11/30 01:52:54;;;;;;;6.55;5.08;;;;;;;0.09;87.26;101158.34;1615030;87;21009;-70
2022/11/30 01:55:35;;;;;;;8.20;6.03;;;;;;;0.04;86.61;101161.91;1624953;87;21905;-70
2022/11/30 01:58:08;;;;;;;7.62;5.20;;;;;;;-0.06;86.33;101161.46;1624591;87;21057;-70
2022/11/30 02:00:35;;;;;;;8.40;5.83;;;;;;;-0.09;86.58;101162.22;1597795;88;21656;-73
2022/11/30 02:03:32;;;;;;;7.53;6.05;;;;;;;-0.11;86.58;101171.64;1621260;87;21031;-69
2022/11/30 02:05:59;;;;;;;10.32;6.17;;;;;;;-0.10;86.52;101169.83;1596625;88;21610;-70
2022/11/30 02:08:26;;;;;;;10.82;5.95;;;;;;;-0.15;86.25;101180.84;1620912;88;21633;-73
2022/11/30 02:10:56;;;;;;;8.90;6.72;;;;;;;-0.22;86.09;101182.37;1622143;87;21053;-72
2022/11/30 02:13:50;;;;;;;10.15;6.62;;;;;;;-0.25;86.27;101178.71;1612374;87;21033;-70
2022/11/30 02:16:41;;;;;;;8.03;6.33;;;;;;;-0.18;86.45;101180.27;1622563;87;21069;-70
2022/11/30 02:19:58;;;;;;;11.90;6.67;;;;;;;-0.18;85.93;101181.59;1596727;89;21064;-70
2022/11/30 02:22:45;;;;;;;8.30;5.67;;;;;;;-0.21;85.83;101181.41;1613720;87;22147;-71
2022/11/30 02:25:24;;;;;;;14.25;9.38;;;;;;;-0.16;85.96;101185.78;1622523;87;20974;-69
2022/11/30 02:28:17;;;;;;;8.83;7.53;;;;;;;-0.11;85.57;101198.56;1622346;88;20954;-69
2022/11/30 02:30:47;;;;;;;11.83;7.35;;;;;;;-0.16;84.59;101188.91;1596845;88;28101;-73
2022/11/30 02:33:19;;;;;;;12.63;8.60;;;;;;;-0.14;85.17;101190.91;1598459;88;21171;-74
2022/11/30 02:35:48;;;;;;;10.45;7.83;;;;;;;-0.10;84.94;101193.63;1622627;87;21929;-73
2022/11/30 02:38:23;;;;;;;14.50;10.10;;;;;;;-0.08;84.82;101189.84;1611058;88;20974;-71
2022/11/30 02:40:50;;;;;;;16.70;10.03;;;;;;;-0.09;84.51;101189.98;1622596;88;21561;-72
2022/11/30 02:43:18;;;;;;;15.78;8.35;;;;;;;-0.10;84.40;101195.79;1622153;87;21576;-73
2022/11/30 02:45:53;;;;;;;14.53;9.20;;;;;;;-0.10;84.37;101190.50;1622615;87;21102;-72
2022/11/30 02:48:30;;;;;;;14.45;8.98;;;;;;;-0.07;84.28;101194.66;1620617;87;21254;-71
2022/11/30 02:50:59;;;;;;;11.78;7.95;;;;;;;-0.09;84.00;101192.63;1622219;88;21537;-72
2022/11/30 02:53:25;;;;;;;10.93;7.80;;;;;;;-0.10;83.98;101189.17;1621992;87;22427;-68
2022/11/30 02:55:53;;;;;;;10.43;6.78;;;;;;;-0.09;83.61;101187.34;1621956;87;21045;-69
2022/11/30 02:58:19;;;;;;;18.90;10.25;;;;;;;-0.18;82.93;101193.01;1622365;87;21057;-71
2022/11/30 03:00:46;;;;;;;11.63;8.93;;;;;;;-0.19;83.33;101188.69;1622428;86;21225;-72
2022/11/30 03:03:13;;;;;;;14.78;9.50;;;;;;;-0.20;83.07;101191.02;1622267;86;21081;-70
2022/11/30 03:05:40;;;;;;;8.73;7.08;;;;;;;-0.17;83.46;101192.03;1624472;88;21109;-71
2022/11/30 03:08:07;;;;;;;8.40;5.83;;;;;;;-0.20;82.66;101197.62;1624440;88;21069;-73
2022/11/30 03:10:33;;;;;;;6.42;5.75;;;;;;;-0.28;82.52;101191.36;1624388;86;21553;-72
2022/11/30 03:13:00;;;;;;;7.72;5.78;;;;;;;-0.29;82.62;101196.33;1624502;86;22029;-74
2022/11/30 03:15:26;;;;;;;9.48;7.10;;;;;;;-0.32;82.54;101192.14;1624470;87;20945;-73
2022/11/30 03:17:52;;;;;;;8.55;5.67;;;;;;;-0.29;83.06;101197.65;1624737;87;20989;-72
2022/11/30 03:20:19;;;;;;;7.40;6.05;;;;;;;-0.23;83.32;101191.77;1624878;87;21030;-73
2022/11/30 03:22:45;;;;;;;7.35;5.40;;;;;;;-0.18;83.45;101185.08;1624173;87;21593;-73
2022/11/30 03:25:11;;;;;;;11.25;7.47;;;;;;;-0.12;83.23;101187.16;1626316;87;21941;-71
2022/11/30 03:27:38;;;;;;;8.00;6.33;;;;;;;-0.13;83.30;101179.35;1635297;87;20999;-70
2022/11/30 03:30:06;;;;;;;14.25;8.18;;;;;;;-0.09;83.53;101159.09;1631649;87;21602;-70
2022/11/30 03:32:33;;;;;;;16.85;8.23;;;;;;;-0.12;83.44;101171.28;1611071;88;22240;-69
2022/11/30 03:34:59;;;;;;;7.72;5.97;;;;;;;-0.21;83.43;101175.28;1625315;86;21058;-69
2022/11/30 03:37:26;;;;;;;7.83;5.87;;;;;;;-0.32;83.06;101176.77;1619207;88;21254;-74
2022/11/30 03:39:52;;;;;;;7.25;6.05;;;;;;;-0.37;83.29;101179.00;1624140;88;21570;-71
2022/11/30 03:42:20;;;;;;;6.58;5.83;;;;;;;-0.37;83.57;101176.36;1624263;87;21025;-72
2022/11/30 03:44:47;;;;;;;5.95;5.03;;;;;;;-0.34;83.58;101180.06;1623379;88;20966;-71
2022/11/30 03:47:13;;;;;;;8.08;6.00;;;;;;;-0.32;83.29;101179.41;1624499;87;21093;-71
2022/11/30 03:49:40;;;;;;;10.10;6.37;;;;;;;-0.32;83.19;101177.60;1624313;88;21229;-73
2022/11/30 03:52:08;;;;;;;6.80;6.12;;;;;;;-0.31;83.10;101176.63;1623815;87;21033;-71
2022/11/30 03:54:35;;;;;;;8.53;7.42;;;;;;;-0.32;83.05;101178.92;1624754;88;21045;-74
2022/11/30 03:57:01;;;;;;;8.28;7.10;;;;;;;-0.31;83.13;101183.73;1624365;88;21020;-72
2022/11/30 03:59:28;;;;;;;8.00;7.10;;;;;;;-0.29;83.37;101188.39;1630560;87;21502;-71
2022/11/30 04:01:55;;;;;;;9.95;6.42;;;;;;;-0.34;83.36;101179.58;1611119;86;21688;-72
2022/11/30 04:04:21;;;;;;;8.15;6.97;;;;;;;-0.36;83.69;101173.58;1621303;87;20995;-74
2022/11/30 04:06:48;;;;;;;9.60;6.20;;;;;;;-0.34;83.72;101175.61;1633168;87;20999;-72
2022/11/30 06:08:05;;;;;;;11.63;8.20;;;;;;;-1.39;91.94;101241.95;1730870;80;34130;-72
2022/11/30 06:10:31;;;;;;;13.67;8.33;;;;;;;-1.39;91.43;101247.73;1665197;86;21272;-73
2022/11/30 06:12:58;;;;;;;17.47;8.77;;;;;;;-1.35;91.17;101239.41;1675502;84;21306;-72
2022/11/30 06:15:26;;;;;;;16.10;9.10;;;;;;;-1.27;90.92;101238.72;1661295;85;20939;-72
2022/11/30 06:17:54;;;;;;;12.23;8.03;;;;;;;-1.21;90.01;101237.34;1677036;85;21550;-70
2022/11/30 06:20:21;;;;;;;12.03;8.10;;;;;;;-1.19;89.50;101232.27;1677443;84;20956;-72
2022/11/30 06:22:48;;;;;;;15.43;9.87;;;;;;;-1.15;89.63;101243.41;1676972;85;21030;-72
2022/11/30 06:25:14;;;;;;;12.80;9.30;;;;;;;-1.13;89.50;101238.81;1676947;85;21546;-72
2022/11/30 06:27:42;;;;;;;9.30;6.67;;;;;;;-1.09;89.74;101238.41;1669210;85;20952;-69
2022/11/30 06:30:11;;;;;;;9.80;7.03;;;;;;;-1.05;89.94;101233.19;1662317;85;20987;-70
2022/11/30 06:32:38;;;;;;;10.33;6.33;;;;;;;-1.03;89.35;101235.70;1676974;84;21540;-71
2022/11/30 06:35:06;;;;;;;7.93;7.13;;;;;;;-1.06;89.27;101233.35;1676841;85;21126;-72
2022/11/30 06:37:35;;;;;;;9.90;7.83;;;;;;;-1.05;89.24;101233.19;1685894;84;21142;-70
2022/11/30 06:40:02;;;;;;;14.00;7.97;;;;;;;-1.03;89.31;101220.70;1686936;84;21010;-71
2022/11/30 06:42:30;;;;;;;14.07;8.50;;;;;;;-0.99;89.44;101224.73;1693149;84;21151;-71
2022/11/30 06:44:57;;;;;;;11.17;7.37;;;;;;;-0.96;89.57;101229.72;1693028;84;21058;-71
2022/11/30 06:47:24;;;;;;;10.87;7.10;;;;;;;-0.93;89.10;101231.27;1682180;84;21606;-68
2022/11/30 06:49:51;;;;;;;13.03;9.10;;;;;;;-0.89;88.82;101229.53;1685248;84;21264;-70
2022/11/30 06:52:18;;;;;;;12.93;9.10;;;;;;;-0.92;88.50;101215.78;1691820;84;20970;-69
2022/11/30 06:54:44;;;;;;;18.07;11.23;;;;;;;-0.92;88.67;101231.62;1692788;84;20973;-69
2022/11/30 06:57:11;;;;;;;10.33;8.23;;;;;;;-0.90;88.65;101253.44;1673155;84;21061;-68
2022/11/30 06:59:41;;;;;;;12.10;8.27;;;;;;;-0.86;88.77;101252.18;1692038;84;21037;-68
2022/11/30 07:02:06;;;;;;;14.33;9.17;;;;;;;-0.83;88.52;101252.41;1693268;84;21750;-68
2022/11/30 07:04:34;;;;;;;17.67;10.10;;;;;;;-0.90;88.23;101263.52;1682157;84;21095;-70
2022/11/30 07:07:02;;;;;;;13.97;9.77;;;;;;;-0.99;88.34;101266.14;1690622;84;21088;-70
2022/11/30 07:09:31;;;;;;;14.20;9.33;;;;;;;-1.03;88.54;101260.79;1670849;84;21334;-70
2022/11/30 07:11:58;;;;;;;12.73;9.00;;;;;;;-1.04;88.65;101267.03;1677708;84;21095;-70
2022/11/30 07:14:24;;;;;;;10.83;9.03;;;;;;;-1.08;88.35;101270.92;1682825;84;21474;-70
2022/11/30 07:16:51;;;;;;;12.65;8.73;;;;;;;-1.12;88.38;101269.53;1692628;84;21025;-71
2022/11/30 07:19:17;;;;;;;18.00;10.47;;;;;;;-1.12;88.61;101275.64;1673786;84;21268;-70
2022/11/30 07:21:44;;;;;;;12.27;9.93;;;;;;;-1.12;88.83;101280.92;1691120;84;20954;-71
2022/11/30 07:26:59;;;;;;;15.43;8.90;;;;;;;-1.05;88.66;101280.72;1691886;84;21083;-70
2022/11/30 07:29:26;;;;;;;20.47;11.50;;;;;;;-0.96;88.79;101274.61;1692039;84;21041;-71
2022/11/30 07:31:53;;;;;;;14.37;8.97;;;;;;;-0.84;88.64;101270.06;1692471;84;21093;-71
2022/11/30 07:34:20;;;;;;;10.07;7.40;;;;;;;-0.79;87.53;101275.77;1691860;84;20955;-70
2022/11/30 07:36:46;;;;;;;13.65;8.43;;;;;;;-0.85;86.87;101271.02;1676707;84;21066;-72
2022/11/30 07:39:14;;;;;;;15.43;10.93;;;;;;;-0.83;86.87;101266.45;1685357;84;22197;-71
2022/11/30 07:41:41;;;;;;;15.60;10.67;;;;;;;-0.89;86.32;101263.87;1658916;84;21093;-71
2022/11/30 07:44:09;;;;;;;13.07;9.33;;;;;;;-0.93;86.33;101276.17;1674369;84;21107;-70
2022/11/30 07:46:36;;;;;;;11.47;9.47;;;;;;;-0.93;86.28;101275.69;1649170;87;21590;-70
2022/11/30 07:49:05;;;;;;;10.60;8.13;;;;;;;-0.97;86.22;101280.05;1648022;86;21123;-70
2022/11/30 07:51:32;;;;;;;12.40;8.93;;;;;;;-0.99;86.00;101274.06;1685918;85;21384;-71
2022/11/30 07:53:59;;;;;;;13.30;8.30;;;;;;;-1.06;86.04;101276.91;1686881;85;21014;-69
2022/11/30 07:56:26;;;;;;;13.08;8.25;;;;;;;-1.08;86.29;101282.80;1667442;85;20976;-71
2022/11/30 07:58:57;;;;;;;21.93;11.60;;;;;;;-1.07;86.57;101281.36;1669244;85;21077;-72
2022/11/30 08:01:29;;;;;;;15.15;9.53;;;;;;;-1.03;86.83;101284.07;1672347;85;21078;-72
2022/11/30 08:03:59;;;;;;;18.73;12.53;;;;;;;-0.97;86.83;101280.89;1686584;85;21090;-71
2022/11/30 08:06:29;;;;;;;13.10;8.23;;;;;;;-0.97;86.15;101280.05;1669599;85;21222;-71
2022/11/30 08:09:00;;;;;;;15.63;9.80;;;;;;;-0.99;86.43;101291.23;1640480;85;21052;-71
2022/11/30 08:11:29;;;;;;;15.83;9.10;;;;;;;-0.99;86.50;101285.95;1632853;86;21177;-71
2022/11/30 08:13:56;;;;;;;17.27;10.27;;;;;;;-0.95;86.30;101291.30;1647339;85;21134;-71
2022/11/30 08:16:25;;;;;;;16.10;9.07;;;;;;;-0.89;85.96;101288.95;1671166;85;21118;-71
2022/11/30 08:18:51;;;;;;;14.37;9.67;;;;;;;-0.92;85.61;101278.68;1656523;85;21052;-71
2022/11/30 08:21:19;;;;;;;14.30;9.33;;;;;;;-0.93;85.50;101282.77;1631687;87;21046;-72
2022/11/30 08:23:52;;;;;;;14.00;11.20;;;;;;;-0.98;85.11;101288.45;1671472;85;20965;-71
2022/11/30 08:26:24;;;;;;;11.53;9.28;;;;;;;-1.05;85.42;101279.88;1667797;86;21114;-71
2022/11/30 08:28:51;;;;;;;14.47;10.13;;;;;;;-1.01;85.93;101280.79;1685510;85;21418;-69
2022/11/30 08:31:23;;;;;;;16.97;11.03;;;;;;;-1.01;85.66;101276.83;1650523;85;21045;-71
2022/11/30 08:33:56;;;;;;;13.53;10.13;;;;;;;-1.01;85.81;101273.38;1621846;86;21075;-72
2022/11/30 08:36:23;;;;;;;17.32;11.28;;;;;;;-1.00;85.88;101263.98;1679504;85;21737;-72
2022/11/30 08:38:50;;;;;;;14.43;11.53;;;;;;;-0.98;85.93;101257.25;1650572;85;21575;-69
2022/11/30 08:41:20;;;;;;;15.13;10.80;;;;;;;-0.96;85.32;101260.09;1653919;85;22346;-68
2022/11/30 08:43:47;;;;;;;18.63;10.47;;;;;;;-0.97;85.13;101265.05;1653936;85;21034;-70
2022/11/30 08:46:16;;;;;;;7.63;6.57;;;;;;;-1.04;84.90;101257.80;1644914;85;21062;-68
2022/11/30 08:48:43;;;;;;;13.60;10.53;;;;;;;-1.10;84.58;101267.09;1652873;85;21080;-68
2022/11/30 08:51:11;;;;;;;13.63;9.37;;;;;;;-1.11;84.97;101261.97;1653458;85;21060;-68
2022/11/30 08:53:37;;;;;;;11.77;8.50;;;;;;;-1.13;84.93;101265.21;1616946;88;21181;-69
2022/11/30 08:56:11;;;;;;;12.07;8.23;;;;;;;-1.11;84.86;101261.48;1656887;85;21080;-70
2022/11/30 08:58:37;;;;;;;15.87;9.50;;;;;;;-1.11;84.83;101265.44;1679877;84;20982;-71
2022/11/30 09:01:24;;;;;;;14.00;9.33;;;;;;;-1.12;85.04;101255.84;1688932;84;21077;-70
2022/11/30 09:03:53;;;;;;;16.67;9.63;;;;;;;-1.13;85.01;101262.58;1689463;84;21074;-72
2022/11/30 09:06:26;;;;;;;12.70;8.07;;;;;;;-1.14;85.17;101267.50;1673271;84;21259;-73
2022/11/30 09:08:57;;;;;;;15.03;9.13;;;;;;;-1.17;85.27;101259.86;1684771;84;21018;-72
2022/11/30 09:11:28;;;;;;;16.47;8.90;;;;;;;-1.13;85.69;101267.85;1679460;83;21567;-72
2022/11/30 09:13:57;;;;;;;14.23;7.43;;;;;;;-1.19;86.03;101267.06;1684912;84;21038;-74
2022/11/30 09:16:23;;;;;;;12.43;11.13;;;;;;;-1.22;86.45;101259.43;1686023;84;21098;-73
2022/11/30 09:18:50;;;;;;;14.27;8.60;;;;;;;-1.24;86.60;101247.67;1683074;83;21156;-73
2022/11/30 09:21:20;;;;;;;13.40;9.17;;;;;;;-1.19;86.99;101256.51;1692852;84;21539;-72
2022/11/30 09:23:47;;;;;;;12.33;7.70;;;;;;;-1.15;87.05;101257.94;1692610;84;21054;-71
2022/11/30 09:26:17;;;;;;;8.37;7.43;;;;;;;-1.07;87.27;101252.80;1689190;84;21538;-72
2022/11/30 09:28:44;;;;;;;16.63;9.57;;;;;;;-1.05;87.13;101252.16;1691090;84;21101;-73
2022/11/30 09:31:14;;;;;;;22.23;12.67;;;;;;;-1.07;87.03;101252.80;1676076;84;21055;-72
2022/11/30 09:33:42;;;;;;;15.67;10.47;;;;;;;-1.07;87.12;101256.27;1692292;84;20951;-73
2022/11/30 09:36:11;;;;;;;11.60;8.20;;;;;;;-1.08;87.22;101244.04;1692084;84;21061;-72
2022/11/30 09:38:38;;;;;;;11.23;8.53;;;;;;;-1.00;87.28;101244.17;1692762;84;21037;-73
2022/11/30 09:41:24;;;;;;;16.33;10.30;;;;;;;-1.00;86.70;101261.34;1690869;84;21069;-73
2022/11/30 09:44:18;;;;;;;16.13;11.37;;;;;;;-1.04;86.83;101255.16;1691812;84;21171;-73
2022/11/30 09:47:02;;;;;;;11.40;7.92;;;;;;;-1.06;86.58;101248.70;1691489;84;21087;-72
2022/11/30 09:49:40;;;;;;;19.70;11.50;;;;;;;-1.12;85.99;101246.61;1692488;84;21021;-75
2022/11/30 09:52:15;;;;;;;15.90;10.33;;;;;;;-1.18;85.84;101257.70;1658641;86;21055;-70
2022/11/30 09:54:43;;;;;;;16.30;11.03;;;;;;;-1.19;86.09;101246.78;1664518;86;21035;-72
2022/11/30 09:57:45;;;;;;;17.07;10.00;;;;;;;-1.12;86.29;101243.97;1677263;84;22457;-71
2022/11/30 10:00:20;;;;;;;16.07;11.70;;;;;;;-1.02;86.00;101246.63;1691265;84;21014;-70
2022/11/30 10:02:52;;;;;;;16.93;9.80;;;;;;;-1.00;85.39;101248.62;1687603;84;21065;-71
2022/11/30 10:05:29;;;;;;;12.40;8.37;;;;;;;-1.01;85.17;101236.42;1692994;84;21017;-71
2022/11/30 10:08:16;;;;;;;11.57;6.97;;;;;;;-1.01;85.01;101246.46;1693548;84;21079;-69
2022/11/30 14:25:14;;;;;;;16.47;12.63;;;;;;;-1.40;84.17;101204.67;1796907;79;24985;-72
2022/11/30 14:27:41;;;;;;;26.37;11.43;;;;;;;-1.32;84.05;101213.22;1758482;80;26524;-71
2022/11/30 14:30:18;;;;;;;23.40;10.20;;;;;;;-1.21;83.84;101207.83;1758676;81;21825;-71
2022/11/30 14:32:50;;;;;;;24.93;11.67;;;;;;;-1.17;82.54;101207.91;1742469;81;20973;-71
2022/11/30 14:35:18;;;;;;;21.57;10.27;;;;;;;-1.16;82.39;101220.14;1728835;82;20945;-71
2022/11/30 14:37:55;;;;;;;17.10;9.73;;;;;;;-1.13;82.33;101213.73;1728376;82;20985;-72
2022/11/30 14:40:24;;;;;;;13.67;10.57;;;;;;;-1.05;82.06;101217.35;1728508;82;21083;-72
2022/11/30 14:42:58;;;;;;;19.37;10.77;;;;;;;-1.02;81.41;101221.54;1728649;83;21278;-71
2022/11/30 14:45:31;;;;;;;13.50;9.67;;;;;;;-1.00;81.46;101227.50;1736958;81;21527;-72
2022/11/30 14:48:07;;;;;;;17.35;8.18;;;;;;;-0.97;81.17;101222.80;1735140;80;27486;-73
2022/11/30 14:50:34;;;;;;;20.37;9.07;;;;;;;-0.91;81.26;101230.15;1725812;82;21567;-73
2022/11/30 14:53:37;;;;;;;29.80;15.30;;;;;;;-0.86;80.98;101228.92;1728362;83;21586;-73
2022/11/30 14:56:10;;;;;;;27.52;14.35;;;;;;;-0.83;80.90;101227.31;1739277;81;21136;-74
2022/11/30 14:58:45;;;;;;;37.45;17.77;;;;;;;-0.86;80.34;101231.05;1735158;80;21070;-75
2022/11/30 15:01:20;;;;;;;48.77;27.20;;;;;;;-0.85;80.32;101237.17;1732488;81;21023;-75
2022/11/30 15:03:47;;;;;;;54.60;27.87;;;;;;;-0.89;79.95;101218.97;1742742;81;21052;-80
2022/11/30 15:06:16;;;;;;;45.17;23.37;;;;;;;-0.89;80.00;101221.61;1736384;81;21536;-84
2022/11/30 15:08:48;;;;;;;31.30;18.67;;;;;;;-0.87;80.23;101225.45;1739797;81;21094;-78
2022/11/30 15:11:15;;;;;;;26.57;14.63;;;;;;;-0.85;80.14;101230.08;1729675;81;21033;-79
2022/11/30 15:13:51;;;;;;;23.07;13.80;;;;;;;-0.84;80.18;101230.92;1711562;83;21613;-78
2022/11/30 15:16:21;;;;;;;18.30;11.87;;;;;;;-0.82;80.14;101227.67;1709145;83;20959;-81
2022/11/30 15:18:48;;;;;;;17.27;10.83;;;;;;;-0.78;80.09;101229.89;1659153;85;21039;-81
2022/11/30 15:21:24;;;;;;;17.53;10.33;;;;;;;-0.75;80.03;101233.56;1675568;85;21133;-80
2022/11/30 15:23:52;;;;;;;16.53;9.57;;;;;;;-0.72;79.62;101239.08;1676259;85;21575;-79
2022/11/30 15:26:24;;;;;;;15.50;9.53;;;;;;;-0.78;79.69;101247.06;1677827;85;21046;-79
2022/11/30 15:28:57;;;;;;;23.50;10.33;;;;;;;-0.80;79.84;101242.88;1665525;85;21110;-80
2022/11/30 15:31:24;;;;;;;26.45;10.58;;;;;;;-0.77;79.97;101243.94;1675249;84;21784;-74
2022/11/30 15:33:50;;;;;;;16.30;10.63;;;;;;;-0.71;80.04;101244.20;1674071;85;21137;-73
2022/11/30 15:36:17;;;;;;;18.27;11.17;;;;;;;-0.71;79.73;101249.97;1672127;84;21126;-73
2022/11/30 15:38:51;;;;;;;19.33;12.03;;;;;;;-0.70;79.52;101249.00;1675151;85;21080;-75
2022/11/30 15:41:21;;;;;;;27.83;16.57;;;;;;;-0.73;79.46;101248.80;1675060;85;21614;-73
2022/11/30 15:43:54;;;;;;;27.50;14.90;;;;;;;-0.73;79.46;101254.09;1643094;85;21098;-76
2022/11/30 15:46:35;;;;;;;;;;;;;;;-0.71;79.41;101246.00;1658345;85;22008;-76
2022/11/30 15:49:19;;;;;;;19.83;10.27;;;;;;;-0.75;79.22;101248.58;1648420;87;20248;-74
2022/11/30 15:51:46;;;;;;;13.60;8.53;;;;;;;-0.81;79.38;101248.64;1642095;85;21003;-71
2022/11/30 15:54:14;;;;;;;12.23;8.97;;;;;;;-0.81;79.44;101245.16;1674380;85;21026;-71
2022/11/30 15:56:40;;;;;;;11.70;8.00;;;;;;;-0.90;79.23;101243.70;1689113;84;21106;-73
2022/11/30 15:59:24;;;;;;;16.20;8.67;;;;;;;-0.95;79.34;101245.92;1651257;85;21251;-72
2022/11/30 16:02:01;;;;;;;18.50;11.43;;;;;;;-0.98;79.49;101242.25;1674112;85;21074;-75
2022/11/30 16:04:48;;;;;;;22.00;10.77;;;;;;;-1.04;79.62;101243.27;1674127;84;21222;-74
2022/11/30 16:07:16;;;;;;;20.73;11.57;;;;;;;-1.08;79.96;101249.80;1662796;85;21058;-71
2022/11/30 16:09:42;;;;;;;15.23;11.00;;;;;;;-1.11;80.28;101250.08;1675644;85;21610;-72
2022/11/30 16:12:16;;;;;;;19.87;12.13;;;;;;;-1.11;80.54;101245.64;1675385;85;22084;-72
2022/11/30 16:14:43;;;;;;;15.97;8.50;;;;;;;-1.10;80.80;101248.61;1672630;84;21018;-73
2022/11/30 16:17:10;;;;;;;21.40;9.63;;;;;;;-1.10;81.06;101249.09;1675422;84;21082;-70
2022/11/30 16:19:38;;;;;;;17.60;10.47;;;;;;;-1.11;81.37;101256.20;1676359;85;21068;-82
2022/11/30 16:22:13;;;;;;;11.70;8.33;;;;;;;-1.11;81.71;101252.24;1677609;84;21031;-85
2022/11/30 16:24:40;;;;;;;15.83;8.95;;;;;;;-1.10;81.88;101245.12;1663775;83;24933;-75
2022/11/30 16:27:18;;;;;;;16.33;9.37;;;;;;;-1.03;82.05;101246.27;1695970;84;21636;-71
2022/11/30 16:29:45;;;;;;;13.97;9.90;;;;;;;-1.01;82.04;101247.78;1695237;84;20969;-71
2022/11/30 16:32:13;;;;;;;21.67;9.97;;;;;;;-1.03;82.22;101243.14;1696108;84;21105;-69
2022/11/30 16:34:40;;;;;;;19.63;11.43;;;;;;;-1.02;82.37;101238.22;1695648;84;21036;-70
2022/11/30 16:37:13;;;;;;;14.87;10.63;;;;;;;-1.03;82.60;101247.59;1696191;84;21297;-73
2022/11/30 16:39:39;;;;;;;19.90;10.97;;;;;;;-1.00;82.81;101245.50;1695120;84;21044;-67
2022/11/30 16:42:10;;;;;;;23.47;13.07;;;;;;;-0.98;82.91;101248.02;1678625;84;21172;-78
2022/11/30 16:44:37;;;;;;;17.03;11.83;;;;;;;-0.97;82.90;101247.05;1694277;84;20985;-75
2022/11/30 16:47:05;;;;;;;18.40;13.00;;;;;;;-0.98;83.07;101251.48;1696582;84;21119;-75
2022/11/30 16:49:31;;;;;;;16.37;11.20;;;;;;;-0.97;83.25;101251.02;1672032;84;21314;-75
2022/11/30 16:51:58;;;;;;;16.63;11.27;;;;;;;-0.94;83.35;101245.44;1696014;84;20981;-75
2022/11/30 16:54:25;;;;;;;17.27;9.50;;;;;;;-0.91;83.36;101254.40;1696665;84;21048;-74
2022/11/30 16:56:51;;;;;;;19.37;9.50;;;;;;;-0.90;83.16;101248.98;1696531;84;21084;-73
2022/11/30 16:59:18;;;;;;;13.37;9.30;;;;;;;-0.84;83.18;101243.64;1696427;84;21044;-71
2022/11/30 17:01:51;;;;;;;15.43;9.37;;;;;;;-0.85;83.04;101247.25;1696282;84;21060;-72
2022/11/30 17:04:21;;;;;;;12.20;9.20;;;;;;;-0.82;82.99;101249.64;1695728;83;21580;-74
2022/11/30 17:06:48;;;;;;;12.73;9.13;;;;;;;-0.81;82.91;101249.12;1695747;84;21043;-73
2022/11/30 17:09:15;;;;;;;14.53;9.43;;;;;;;-0.81;82.96;101249.96;1696319;84;21008;-77
2022/11/30 17:11:42;;;;;;;11.70;8.23;;;;;;;-0.79;83.00;101240.11;1695347;84;21143;-79
2022/11/30 17:14:13;;;;;;;13.20;9.37;;;;;;;-0.77;82.63;101243.45;1667747;84;21112;-78
2022/11/30 17:16:40;;;;;;;13.93;10.40;;;;;;;-0.76;82.78;101242.94;1666716;86;21592;-75
2022/11/30 17:19:07;;;;;;;15.13;8.83;;;;;;;-0.79;82.81;101240.11;1692864;84;21593;-75
2022/11/30 17:21:36;;;;;;;18.47;10.97;;;;;;;-0.77;82.95;101247.42;1695421;84;20969;-77
2022/11/30 17:24:07;;;;;;;13.67;10.10;;;;;;;-0.79;82.95;101236.14;1696604;84;21166;-79
2022/11/30 17:26:34;;;;;;;16.00;9.73;;;;;;;-0.79;82.69;101245.39;1696570;84;21827;-79
2022/11/30 17:29:02;;;;;;;12.40;8.90;;;;;;;-0.81;82.76;101242.52;1672444;84;21075;-78
2022/11/30 17:31:28;;;;;;;14.60;8.53;;;;;;;-0.81;82.71;101241.20;1696218;84;21000;-76
2022/11/30 17:33:55;;;;;;;14.80;10.40;;;;;;;-0.78;82.81;101240.95;1695597;83;21049;-76
2022/11/30 17:36:22;;;;;;;16.40;9.00;;;;;;;-0.73;82.79;101250.61;1696339;84;21167;-77
2022/11/30 17:38:48;;;;;;;13.40;7.43;;;;;;;-0.70;82.43;101243.72;1696313;84;21082;-79
2022/11/30 17:41:18;;;;;;;11.37;6.80;;;;;;;-0.72;82.09;101245.16;1696431;84;20953;-78
2022/11/30 17:43:45;;;;;;;15.17;8.97;;;;;;;-0.67;82.11;101246.91;1696769;84;21020;-77
2022/11/30 17:46:14;;;;;;;14.23;8.10;;;;;;;-0.67;81.84;101240.81;1696004;83;21101;-77
2022/11/30 17:48:41;;;;;;;12.70;8.20;;;;;;;-0.68;81.87;101237.82;1696707;84;21131;-79
2022/11/30 17:51:08;;;;;;;14.93;6.43;;;;;;;-0.66;81.82;101238.02;1696571;84;21029;-75
2022/11/30 17:53:37;;;;;;;14.47;8.67;;;;;;;-0.63;81.66;101239.08;1696112;84;21120;-77
2022/11/30 17:56:09;;;;;;;11.57;8.33;;;;;;;-0.61;81.62;101237.59;1696443;84;20997;-76
2022/11/30 17:58:38;;;;;;;16.62;11.75;;;;;;;-0.55;81.57;101243.16;1696124;84;21021;-77
2022/11/30 18:01:18;;;;;;;13.57;9.10;;;;;;;-0.55;81.17;101235.23;1695815;83;21133;-78
2022/11/30 18:03:46;;;;;;;13.50;9.90;;;;;;;-0.56;80.92;101233.56;1696467;84;21887;-77
2022/11/30 18:06:13;;;;;;;15.20;8.40;;;;;;;-0.57;80.92;101238.49;1696944;84;21758;-80
2022/11/30 18:08:43;;;;;;;16.53;9.03;;;;;;;-0.59;80.69;101231.21;1697406;84;20988;-78
2022/11/30 18:11:15;;;;;;;16.37;9.77;;;;;;;-0.60;80.62;101228.70;1697966;83;21085;-78
2022/11/30 18:13:43;;;;;;;20.20;9.75;;;;;;;-0.64;80.53;101226.83;1674541;84;21036;-81
2022/11/30 18:16:16;;;;;;;17.02;9.78;;;;;;;-0.65;80.50;101228.28;1698213;84;21818;-79
2022/11/30 18:18:42;;;;;;;18.25;10.72;;;;;;;-0.64;80.63;101221.55;1698838;84;21557;-76
2022/11/30 18:21:10;;;;;;;19.03;12.17;;;;;;;-0.62;80.61;101222.70;1696969;84;21119;-78
2022/11/30 18:23:38;;;;;;;15.32;8.73;;;;;;;-0.59;80.66;101225.09;1696485;84;21068;-75
